sensor_id;sensor_type;location;lat;lon;timestamp;P1;durP1;ratioP1;P2;durP2;ratioP2
9888;SDS011;4983;42.112;24.738;2022-10-18T00:00:17;13.70;;;10.30;;
9888;SDS011;4983;42.112;24.738;2022-10-18T00:02:44;14.20;;;11.17;;
9888;SDS011;4983;42.112;24.738;2022-10-18T00:05:10;13.63;;;10.90;;
9888;SDS011;4983;42.112;24.738;2022-10-18T00:07:38;14.57;;;10.37;;
9888;SDS011;4983;42.112;24.738;2022-10-18T00:10:05;13.77;;;10.93;;
9888;SDS011;4983;42.112;24.738;2022-10-18T00:12:32;16.83;;;11.40;;
9888;SDS011;4983;42.112;24.738;2022-10-18T00:14:59;15.07;;;11.30;;
9888;SDS011;4983;42.112;24.738;2022-10-18T00:17:26;13.63;;;10.70;;
9888;SDS011;4983;42.112;24.738;2022-10-18T00:19:52;16.13;;;11.23;;
9888;SDS011;4983;42.112;24.738;2022-10-18T00:22:19;13.53;;;11.53;;
9888;SDS011;4983;42.112;24.738;2022-10-18T00:24:47;15.03;;;10.83;;
9888;SDS011;4983;42.112;24.738;2022-10-18T00:27:13;14.43;;;11.80;;
9888;SDS011;4983;42.112;24.738;2022-10-18T00:29:40;15.30;;;11.50;;
9888;SDS011;4983;42.112;24.738;2022-10-18T00:32:07;13.27;;;11.63;;
9888;SDS011;4983;42.112;24.738;2022-10-18T00:34:33;14.50;;;11.57;;
9888;SDS011;4983;42.112;24.738;2022-10-18T00:37:00;13.10;;;11.07;;
9888;SDS011;4983;42.112;24.738;2022-10-18T00:39:26;15.47;;;11.37;;
9888;SDS011;4983;42.112;24.738;2022-10-18T00:41:54;17.37;;;11.33;;
9888;SDS011;4983;42.112;24.738;2022-10-18T00:47:07;12.70;;;11.23;;
9888;SDS011;4983;42.112;24.738;2022-10-18T00:49:34;14.00;;;10.50;;
9888;SDS011;4983;42.112;24.738;2022-10-18T00:52:02;12.53;;;10.67;;
9888;SDS011;4983;42.112;24.738;2022-10-18T00:54:30;14.83;;;11.13;;
9888;SDS011;4983;42.112;24.738;2022-10-18T00:57:00;18.80;;;11.23;;
9888;SDS011;4983;42.112;24.738;2022-10-18T00:59:27;14.10;;;11.03;;
9888;SDS011;4983;42.112;24.738;2022-10-18T01:01:54;12.23;;;10.90;;
9888;SDS011;4983;42.112;24.738;2022-10-18T01:04:21;13.70;;;11.20;;
9888;SDS011;4983;42.112;24.738;2022-10-18T01:06:49;12.70;;;10.13;;
9888;SDS011;4983;42.112;24.738;2022-10-18T01:09:17;13.47;;;10.63;;
9888;SDS011;4983;42.112;24.738;2022-10-18T01:14:35;13.60;;;10.97;;
9888;SDS011;4983;42.112;24.738;2022-10-18T01:17:06;13.37;;;10.53;;
9888;SDS011;4983;42.112;24.738;2022-10-18T01:19:48;15.87;;;10.30;;
9888;SDS011;4983;42.112;24.738;2022-10-18T01:22:20;15.67;;;11.10;;
9888;SDS011;4983;42.112;24.738;2022-10-18T01:27:34;17.23;;;11.43;;
9888;SDS011;4983;42.112;24.738;2022-10-18T01:32:51;14.17;;;10.53;;
9888;SDS011;4983;42.112;24.738;2022-10-18T01:35:19;13.57;;;10.70;;
9888;SDS011;4983;42.112;24.738;2022-10-18T01:37:47;15.83;;;11.63;;
9888;SDS011;4983;42.112;24.738;2022-10-18T01:40:15;21.67;;;16.27;;
9888;SDS011;4983;42.112;24.738;2022-10-18T01:42:43;18.30;;;11.77;;
9888;SDS011;4983;42.112;24.738;2022-10-18T01:45:11;15.90;;;11.37;;
9888;SDS011;4983;42.112;24.738;2022-10-18T01:47:38;13.10;;;11.23;;
9888;SDS011;4983;42.112;24.738;2022-10-18T01:50:07;18.77;;;11.67;;
9888;SDS011;4983;42.112;24.738;2022-10-18T01:52:34;13.83;;;11.00;;
9888;SDS011;4983;42.112;24.738;2022-10-18T01:55:00;13.30;;;11.17;;
9888;SDS011;4983;42.112;24.738;2022-10-18T01:57:29;16.93;;;11.50;;
9888;SDS011;4983;42.112;24.738;2022-10-18T01:59:58;14.23;;;11.13;;
9888;SDS011;4983;42.112;24.738;2022-10-18T02:02:37;18.77;;;11.53;;
9888;SDS011;4983;42.112;24.738;2022-10-18T02:05:09;22.07;;;11.47;;
9888;SDS011;4983;42.112;24.738;2022-10-18T02:07:38;13.27;;;10.07;;
9888;SDS011;4983;42.112;24.738;2022-10-18T02:10:07;14.30;;;10.50;;
9888;SDS011;4983;42.112;24.738;2022-10-18T02:12:35;12.63;;;10.90;;
9888;SDS011;4983;42.112;24.738;2022-10-18T02:15:02;16.73;;;10.93;;
9888;SDS011;4983;42.112;24.738;2022-10-18T02:17:30;14.47;;;11.13;;
9888;SDS011;4983;42.112;24.738;2022-10-18T02:19:57;14.57;;;12.27;;
9888;SDS011;4983;42.112;24.738;2022-10-18T02:22:26;14.13;;;11.23;;
9888;SDS011;4983;42.112;24.738;2022-10-18T02:24:55;14.27;;;10.93;;
9888;SDS011;4983;42.112;24.738;2022-10-18T02:27:22;14.50;;;11.23;;
9888;SDS011;4983;42.112;24.738;2022-10-18T02:29:49;12.43;;;11.17;;
9888;SDS011;4983;42.112;24.738;2022-10-18T02:32:17;13.93;;;10.43;;
9888;SDS011;4983;42.112;24.738;2022-10-18T02:34:45;13.57;;;10.20;;
9888;SDS011;4983;42.112;24.738;2022-10-18T02:37:13;14.77;;;10.57;;
9888;SDS011;4983;42.112;24.738;2022-10-18T02:39:43;12.97;;;10.90;;
9888;SDS011;4983;42.112;24.738;2022-10-18T02:42:11;14.50;;;10.93;;
9888;SDS011;4983;42.112;24.738;2022-10-18T02:44:38;12.53;;;11.17;;
9888;SDS011;4983;42.112;24.738;2022-10-18T02:47:05;13.73;;;10.87;;
9888;SDS011;4983;42.112;24.738;2022-10-18T02:49:32;12.07;;;10.43;;
9888;SDS011;4983;42.112;24.738;2022-10-18T02:51:59;11.57;;;10.47;;
9888;SDS011;4983;42.112;24.738;2022-10-18T02:54:26;13.47;;;10.10;;
9888;SDS011;4983;42.112;24.738;2022-10-18T02:56:54;12.13;;;10.20;;
9888;SDS011;4983;42.112;24.738;2022-10-18T02:59:20;14.47;;;10.90;;
9888;SDS011;4983;42.112;24.738;2022-10-18T03:01:47;11.67;;;10.47;;
9888;SDS011;4983;42.112;24.738;2022-10-18T03:04:14;11.93;;;9.90;;
9888;SDS011;4983;42.112;24.738;2022-10-18T03:06:40;23.63;;;11.73;;
9888;SDS011;4983;42.112;24.738;2022-10-18T03:09:07;26.93;;;11.60;;
9888;SDS011;4983;42.112;24.738;2022-10-18T03:11:33;25.77;;;12.50;;
9888;SDS011;4983;42.112;24.738;2022-10-18T03:14:01;20.10;;;10.47;;
9888;SDS011;4983;42.112;24.738;2022-10-18T03:16:28;15.83;;;10.00;;
9888;SDS011;4983;42.112;24.738;2022-10-18T03:18:54;12.63;;;9.40;;
9888;SDS011;4983;42.112;24.738;2022-10-18T03:21:21;15.60;;;10.13;;
9888;SDS011;4983;42.112;24.738;2022-10-18T03:23:48;13.00;;;10.03;;
9888;SDS011;4983;42.112;24.738;2022-10-18T03:26:15;19.43;;;11.03;;
9888;SDS011;4983;42.112;24.738;2022-10-18T03:28:42;20.47;;;11.90;;
9888;SDS011;4983;42.112;24.738;2022-10-18T03:31:10;13.23;;;9.80;;
9888;SDS011;4983;42.112;24.738;2022-10-18T03:33:36;12.83;;;9.67;;
9888;SDS011;4983;42.112;24.738;2022-10-18T03:36:03;13.17;;;9.73;;
9888;SDS011;4983;42.112;24.738;2022-10-18T03:38:30;13.63;;;11.03;;
9888;SDS011;4983;42.112;24.738;2022-10-18T03:40:56;15.97;;;9.57;;
9888;SDS011;4983;42.112;24.738;2022-10-18T03:43:23;14.90;;;9.93;;
9888;SDS011;4983;42.112;24.738;2022-10-18T03:45:50;17.50;;;9.87;;
9888;SDS011;4983;42.112;24.738;2022-10-18T03:48:18;17.63;;;10.87;;
9888;SDS011;4983;42.112;24.738;2022-10-18T03:50:44;21.27;;;12.13;;
9888;SDS011;4983;42.112;24.738;2022-10-18T03:53:11;25.57;;;10.53;;
9888;SDS011;4983;42.112;24.738;2022-10-18T03:55:38;20.60;;;10.43;;
9888;SDS011;4983;42.112;24.738;2022-10-18T03:58:05;14.90;;;10.60;;
9888;SDS011;4983;42.112;24.738;2022-10-18T04:00:31;18.40;;;10.93;;
9888;SDS011;4983;42.112;24.738;2022-10-18T04:02:58;22.00;;;10.60;;
9888;SDS011;4983;42.112;24.738;2022-10-18T04:05:26;28.20;;;11.73;;
9888;SDS011;4983;42.112;24.738;2022-10-18T04:07:55;30.67;;;12.67;;
9888;SDS011;4983;42.112;24.738;2022-10-18T04:10:21;20.03;;;12.37;;
9888;SDS011;4983;42.112;24.738;2022-10-18T04:12:48;29.33;;;12.00;;
9888;SDS011;4983;42.112;24.738;2022-10-18T04:15:15;30.37;;;13.10;;
9888;SDS011;4983;42.112;24.738;2022-10-18T04:17:42;23.30;;;12.40;;
9888;SDS011;4983;42.112;24.738;2022-10-18T04:20:09;42.17;;;13.60;;
9888;SDS011;4983;42.112;24.738;2022-10-18T04:22:37;33.43;;;13.77;;
9888;SDS011;4983;42.112;24.738;2022-10-18T04:25:04;39.40;;;13.73;;
9888;SDS011;4983;42.112;24.738;2022-10-18T04:27:31;48.63;;;13.60;;
9888;SDS011;4983;42.112;24.738;2022-10-18T04:29:58;40.97;;;12.97;;
9888;SDS011;4983;42.112;24.738;2022-10-18T04:32:24;49.83;;;15.47;;
9888;SDS011;4983;42.112;24.738;2022-10-18T04:34:53;51.00;;;14.90;;
9888;SDS011;4983;42.112;24.738;2022-10-18T04:37:19;50.47;;;16.33;;
9888;SDS011;4983;42.112;24.738;2022-10-18T04:39:47;30.47;;;12.53;;
9888;SDS011;4983;42.112;24.738;2022-10-18T04:42:14;43.13;;;13.77;;
9888;SDS011;4983;42.112;24.738;2022-10-18T04:44:41;54.93;;;16.33;;
9888;SDS011;4983;42.112;24.738;2022-10-18T04:47:07;29.83;;;12.87;;
9888;SDS011;4983;42.112;24.738;2022-10-18T04:49:34;20.07;;;11.27;;
9888;SDS011;4983;42.112;24.738;2022-10-18T04:52:01;35.00;;;12.70;;
9888;SDS011;4983;42.112;24.738;2022-10-18T04:54:27;38.17;;;13.23;;
9888;SDS011;4983;42.112;24.738;2022-10-18T04:56:56;49.83;;;13.33;;
9888;SDS011;4983;42.112;24.738;2022-10-18T04:59:22;53.37;;;14.57;;
9888;SDS011;4983;42.112;24.738;2022-10-18T05:01:49;50.47;;;13.20;;
9888;SDS011;4983;42.112;24.738;2022-10-18T05:04:15;32.73;;;12.67;;
9888;SDS011;4983;42.112;24.738;2022-10-18T05:06:42;25.97;;;12.13;;
9888;SDS011;4983;42.112;24.738;2022-10-18T05:09:08;31.73;;;11.57;;
9888;SDS011;4983;42.112;24.738;2022-10-18T05:11:35;34.07;;;12.53;;
9888;SDS011;4983;42.112;24.738;2022-10-18T05:14:03;42.30;;;17.33;;
9888;SDS011;4983;42.112;24.738;2022-10-18T05:16:29;35.07;;;14.77;;
9888;SDS011;4983;42.112;24.738;2022-10-18T05:18:57;42.10;;;14.57;;
9888;SDS011;4983;42.112;24.738;2022-10-18T05:21:24;36.40;;;13.97;;
9888;SDS011;4983;42.112;24.738;2022-10-18T05:23:53;48.13;;;15.47;;
9888;SDS011;4983;42.112;24.738;2022-10-18T05:26:20;56.90;;;15.00;;
9888;SDS011;4983;42.112;24.738;2022-10-18T05:28:47;52.80;;;15.63;;
9888;SDS011;4983;42.112;24.738;2022-10-18T05:31:16;30.67;;;12.77;;
9888;SDS011;4983;42.112;24.738;2022-10-18T05:33:42;21.37;;;11.00;;
9888;SDS011;4983;42.112;24.738;2022-10-18T05:36:09;43.63;;;14.27;;
9888;SDS011;4983;42.112;24.738;2022-10-18T05:38:37;20.43;;;11.47;;
9888;SDS011;4983;42.112;24.738;2022-10-18T05:41:03;29.83;;;11.93;;
9888;SDS011;4983;42.112;24.738;2022-10-18T05:43:31;22.53;;;10.87;;
9888;SDS011;4983;42.112;24.738;2022-10-18T05:45:57;21.83;;;11.33;;
9888;SDS011;4983;42.112;24.738;2022-10-18T05:48:25;27.30;;;11.17;;
9888;SDS011;4983;42.112;24.738;2022-10-18T05:50:52;26.80;;;11.13;;
9888;SDS011;4983;42.112;24.738;2022-10-18T05:53:18;27.90;;;10.87;;
9888;SDS011;4983;42.112;24.738;2022-10-18T05:55:45;18.07;;;9.47;;
9888;SDS011;4983;42.112;24.738;2022-10-18T05:58:12;19.50;;;10.27;;
9888;SDS011;4983;42.112;24.738;2022-10-18T06:00:38;13.57;;;9.20;;
9888;SDS011;4983;42.112;24.738;2022-10-18T06:03:05;18.20;;;9.37;;
9888;SDS011;4983;42.112;24.738;2022-10-18T06:05:33;14.80;;;9.33;;
9888;SDS011;4983;42.112;24.738;2022-10-18T06:08:00;25.23;;;10.33;;
9888;SDS011;4983;42.112;24.738;2022-10-18T06:10:26;16.13;;;9.47;;
9888;SDS011;4983;42.112;24.738;2022-10-18T06:12:53;15.83;;;8.87;;
9888;SDS011;4983;42.112;24.738;2022-10-18T06:15:19;23.30;;;10.73;;
9888;SDS011;4983;42.112;24.738;2022-10-18T06:17:46;19.03;;;10.70;;
9888;SDS011;4983;42.112;24.738;2022-10-18T06:20:12;15.20;;;9.53;;
9888;SDS011;4983;42.112;24.738;2022-10-18T06:22:41;24.43;;;10.70;;
9888;SDS011;4983;42.112;24.738;2022-10-18T06:25:07;25.73;;;10.77;;
9888;SDS011;4983;42.112;24.738;2022-10-18T06:27:34;25.10;;;10.17;;
9888;SDS011;4983;42.112;24.738;2022-10-18T06:30:01;15.47;;;9.00;;
9888;SDS011;4983;42.112;24.738;2022-10-18T06:32:27;19.27;;;9.17;;
9888;SDS011;4983;42.112;24.738;2022-10-18T06:34:54;25.03;;;10.37;;
9888;SDS011;4983;42.112;24.738;2022-10-18T06:37:21;19.40;;;9.60;;
9888;SDS011;4983;42.112;24.738;2022-10-18T06:39:49;16.40;;;9.23;;
9888;SDS011;4983;42.112;24.738;2022-10-18T06:42:16;18.87;;;9.67;;
9888;SDS011;4983;42.112;24.738;2022-10-18T06:44:43;22.83;;;11.57;;
9888;SDS011;4983;42.112;24.738;2022-10-18T06:47:09;23.17;;;11.20;;
9888;SDS011;4983;42.112;24.738;2022-10-18T06:49:36;16.27;;;10.63;;
9888;SDS011;4983;42.112;24.738;2022-10-18T06:52:03;19.00;;;12.93;;
9888;SDS011;4983;42.112;24.738;2022-10-18T06:54:31;15.47;;;10.77;;
9888;SDS011;4983;42.112;24.738;2022-10-18T06:56:59;34.87;;;12.10;;
9888;SDS011;4983;42.112;24.738;2022-10-18T06:59:26;20.67;;;11.50;;
9888;SDS011;4983;42.112;24.738;2022-10-18T07:01:53;21.83;;;11.50;;
9888;SDS011;4983;42.112;24.738;2022-10-18T07:04:20;28.83;;;11.10;;
9888;SDS011;4983;42.112;24.738;2022-10-18T07:06:46;21.97;;;10.87;;
9888;SDS011;4983;42.112;24.738;2022-10-18T07:09:13;20.77;;;9.73;;
9888;SDS011;4983;42.112;24.738;2022-10-18T07:11:40;14.67;;;9.87;;
9888;SDS011;4983;42.112;24.738;2022-10-18T07:14:08;12.57;;;8.23;;
9888;SDS011;4983;42.112;24.738;2022-10-18T07:16:34;28.73;;;9.10;;
9888;SDS011;4983;42.112;24.738;2022-10-18T07:19:01;16.07;;;8.63;;
9888;SDS011;4983;42.112;24.738;2022-10-18T07:21:28;14.87;;;11.33;;
9888;SDS011;4983;42.112;24.738;2022-10-18T07:23:54;26.73;;;9.87;;
9888;SDS011;4983;42.112;24.738;2022-10-18T07:26:22;24.20;;;9.63;;
9888;SDS011;4983;42.112;24.738;2022-10-18T07:28:49;14.83;;;8.17;;
9888;SDS011;4983;42.112;24.738;2022-10-18T07:31:17;10.20;;;6.93;;
9888;SDS011;4983;42.112;24.738;2022-10-18T07:33:44;13.07;;;7.00;;
9888;SDS011;4983;42.112;24.738;2022-10-18T07:36:10;21.30;;;8.50;;
9888;SDS011;4983;42.112;24.738;2022-10-18T07:38:37;14.90;;;7.43;;
9888;SDS011;4983;42.112;24.738;2022-10-18T07:41:05;11.77;;;7.30;;
9888;SDS011;4983;42.112;24.738;2022-10-18T07:43:31;16.43;;;7.10;;
9888;SDS011;4983;42.112;24.738;2022-10-18T07:45:59;19.03;;;7.43;;
9888;SDS011;4983;42.112;24.738;2022-10-18T07:48:27;13.20;;;6.93;;
9888;SDS011;4983;42.112;24.738;2022-10-18T07:50:56;14.20;;;8.20;;
9888;SDS011;4983;42.112;24.738;2022-10-18T07:53:23;9.67;;;5.53;;
9888;SDS011;4983;42.112;24.738;2022-10-18T07:55:49;8.93;;;5.43;;
9888;SDS011;4983;42.112;24.738;2022-10-18T07:58:16;25.70;;;7.03;;
9888;SDS011;4983;42.112;24.738;2022-10-18T08:00:42;20.00;;;6.50;;
9888;SDS011;4983;42.112;24.738;2022-10-18T08:03:09;14.33;;;6.20;;
9888;SDS011;4983;42.112;24.738;2022-10-18T08:05:37;18.43;;;6.60;;
9888;SDS011;4983;42.112;24.738;2022-10-18T08:08:04;11.07;;;5.50;;
9888;SDS011;4983;42.112;24.738;2022-10-18T08:10:30;8.90;;;5.80;;
9888;SDS011;4983;42.112;24.738;2022-10-18T08:12:57;8.23;;;4.20;;
9888;SDS011;4983;42.112;24.738;2022-10-18T08:15:23;6.03;;;5.10;;
9888;SDS011;4983;42.112;24.738;2022-10-18T08:17:50;7.93;;;5.80;;
9888;SDS011;4983;42.112;24.738;2022-10-18T08:20:17;23.97;;;8.30;;
9888;SDS011;4983;42.112;24.738;2022-10-18T08:22:45;9.83;;;6.70;;
9888;SDS011;4983;42.112;24.738;2022-10-18T08:25:14;7.50;;;5.07;;
9888;SDS011;4983;42.112;24.738;2022-10-18T08:27:41;6.20;;;5.60;;
9888;SDS011;4983;42.112;24.738;2022-10-18T08:30:08;9.23;;;6.83;;
9888;SDS011;4983;42.112;24.738;2022-10-18T08:32:35;6.60;;;5.20;;
9888;SDS011;4983;42.112;24.738;2022-10-18T08:35:01;6.80;;;5.13;;
9888;SDS011;4983;42.112;24.738;2022-10-18T08:37:28;11.00;;;5.10;;
9888;SDS011;4983;42.112;24.738;2022-10-18T08:39:56;7.63;;;5.73;;
9888;SDS011;4983;42.112;24.738;2022-10-18T08:42:28;20.07;;;6.53;;
9888;SDS011;4983;42.112;24.738;2022-10-18T08:44:58;16.43;;;5.80;;
9888;SDS011;4983;42.112;24.738;2022-10-18T08:47:28;9.60;;;6.40;;
9888;SDS011;4983;42.112;24.738;2022-10-18T08:49:56;18.63;;;6.77;;
9888;SDS011;4983;42.112;24.738;2022-10-18T08:52:26;15.50;;;6.67;;
9888;SDS011;4983;42.112;24.738;2022-10-18T08:54:57;15.77;;;5.97;;
9888;SDS011;4983;42.112;24.738;2022-10-18T08:57:26;8.03;;;4.97;;
9888;SDS011;4983;42.112;24.738;2022-10-18T08:59:53;10.47;;;5.50;;
9888;SDS011;4983;42.112;24.738;2022-10-18T09:02:24;7.13;;;5.03;;
9888;SDS011;4983;42.112;24.738;2022-10-18T09:04:55;9.73;;;5.27;;
9888;SDS011;4983;42.112;24.738;2022-10-18T09:10:13;15.37;;;6.10;;
9888;SDS011;4983;42.112;24.738;2022-10-18T09:12:54;13.73;;;5.80;;
9888;SDS011;4983;42.112;24.738;2022-10-18T09:15:39;7.13;;;4.93;;
9888;SDS011;4983;42.112;24.738;2022-10-18T09:18:12;11.10;;;5.20;;
9888;SDS011;4983;42.112;24.738;2022-10-18T09:20:45;7.90;;;4.97;;
9888;SDS011;4983;42.112;24.738;2022-10-18T09:23:15;16.90;;;5.70;;
9888;SDS011;4983;42.112;24.738;2022-10-18T09:25:46;9.27;;;5.53;;
9888;SDS011;4983;42.112;24.738;2022-10-18T09:28:14;10.13;;;5.20;;
9888;SDS011;4983;42.112;24.738;2022-10-18T09:30:43;7.30;;;4.90;;
9888;SDS011;4983;42.112;24.738;2022-10-18T09:33:26;8.83;;;5.20;;
9888;SDS011;4983;42.112;24.738;2022-10-18T09:35:55;15.77;;;5.10;;
9888;SDS011;4983;42.112;24.738;2022-10-18T09:38:23;11.87;;;5.33;;
9888;SDS011;4983;42.112;24.738;2022-10-18T09:40:54;10.10;;;5.20;;
9888;SDS011;4983;42.112;24.738;2022-10-18T09:43:22;6.63;;;4.93;;
9888;SDS011;4983;42.112;24.738;2022-10-18T09:45:50;10.13;;;6.03;;
9888;SDS011;4983;42.112;24.738;2022-10-18T09:48:19;11.13;;;5.40;;
9888;SDS011;4983;42.112;24.738;2022-10-18T09:50:48;7.63;;;5.00;;
9888;SDS011;4983;42.112;24.738;2022-10-18T09:53:16;9.07;;;5.00;;
9888;SDS011;4983;42.112;24.738;2022-10-18T09:55:50;12.70;;;5.03;;
9888;SDS011;4983;42.112;24.738;2022-10-18T09:58:20;11.57;;;5.20;;
9888;SDS011;4983;42.112;24.738;2022-10-18T10:00:48;9.97;;;4.60;;
9888;SDS011;4983;42.112;24.738;2022-10-18T10:03:16;21.33;;;7.13;;
9888;SDS011;4983;42.112;24.738;2022-10-18T10:05:42;9.43;;;5.40;;
9888;SDS011;4983;42.112;24.738;2022-10-18T10:08:10;17.77;;;5.93;;
9888;SDS011;4983;42.112;24.738;2022-10-18T10:10:38;8.20;;;5.33;;
9888;SDS011;4983;42.112;24.738;2022-10-18T10:13:06;9.37;;;5.77;;
9888;SDS011;4983;42.112;24.738;2022-10-18T10:15:40;7.00;;;5.10;;
9888;SDS011;4983;42.112;24.738;2022-10-18T10:18:16;9.60;;;5.00;;
9888;SDS011;4983;42.112;24.738;2022-10-18T10:20:44;8.83;;;5.17;;
9888;SDS011;4983;42.112;24.738;2022-10-18T10:23:13;8.10;;;4.73;;
9888;SDS011;4983;42.112;24.738;2022-10-18T10:25:41;7.13;;;4.73;;
9888;SDS011;4983;42.112;24.738;2022-10-18T10:28:12;8.50;;;4.50;;
9888;SDS011;4983;42.112;24.738;2022-10-18T10:30:40;10.83;;;4.70;;
9888;SDS011;4983;42.112;24.738;2022-10-18T10:33:09;8.93;;;4.60;;
9888;SDS011;4983;42.112;24.738;2022-10-18T10:35:57;12.93;;;4.97;;
9888;SDS011;4983;42.112;24.738;2022-10-18T10:38:24;12.13;;;5.20;;
9888;SDS011;4983;42.112;24.738;2022-10-18T10:40:51;10.00;;;4.67;;
9888;SDS011;4983;42.112;24.738;2022-10-18T10:43:18;6.17;;;4.40;;
9888;SDS011;4983;42.112;24.738;2022-10-18T10:45:56;15.60;;;5.67;;
9888;SDS011;4983;42.112;24.738;2022-10-18T10:48:23;14.33;;;4.83;;
9888;SDS011;4983;42.112;24.738;2022-10-18T10:50:52;10.10;;;4.37;;
9888;SDS011;4983;42.112;24.738;2022-10-18T10:53:28;13.83;;;4.80;;
9888;SDS011;4983;42.112;24.738;2022-10-18T10:55:56;12.00;;;4.63;;
9888;SDS011;4983;42.112;24.738;2022-10-18T10:58:24;10.60;;;3.97;;
9888;SDS011;4983;42.112;24.738;2022-10-18T11:00:51;7.40;;;4.13;;
9888;SDS011;4983;42.112;24.738;2022-10-18T11:03:20;7.23;;;4.03;;
9888;SDS011;4983;42.112;24.738;2022-10-18T11:05:48;10.47;;;4.83;;
9888;SDS011;4983;42.112;24.738;2022-10-18T11:08:18;6.77;;;4.10;;
9888;SDS011;4983;42.112;24.738;2022-10-18T11:10:49;6.83;;;4.40;;
9888;SDS011;4983;42.112;24.738;2022-10-18T11:13:21;12.33;;;4.33;;
9888;SDS011;4983;42.112;24.738;2022-10-18T11:15:51;7.87;;;4.00;;
9888;SDS011;4983;42.112;24.738;2022-10-18T11:18:20;16.63;;;4.53;;
9888;SDS011;4983;42.112;24.738;2022-10-18T11:20:50;10.77;;;4.20;;
9888;SDS011;4983;42.112;24.738;2022-10-18T11:23:18;9.93;;;4.17;;
9888;SDS011;4983;42.112;24.738;2022-10-18T11:25:58;16.67;;;4.83;;
9888;SDS011;4983;42.112;24.738;2022-10-18T11:28:31;12.30;;;4.33;;
9888;SDS011;4983;42.112;24.738;2022-10-18T11:31:02;27.00;;;6.47;;
9888;SDS011;4983;42.112;24.738;2022-10-18T11:33:37;11.60;;;4.27;;
9888;SDS011;4983;42.112;24.738;2022-10-18T11:36:06;15.00;;;4.23;;
9888;SDS011;4983;42.112;24.738;2022-10-18T11:38:36;8.23;;;3.87;;
9888;SDS011;4983;42.112;24.738;2022-10-18T11:41:14;6.17;;;3.90;;
9888;SDS011;4983;42.112;24.738;2022-10-18T11:43:44;5.40;;;3.80;;
9888;SDS011;4983;42.112;24.738;2022-10-18T11:46:16;8.70;;;3.90;;
9888;SDS011;4983;42.112;24.738;2022-10-18T11:48:59;5.87;;;3.37;;
9888;SDS011;4983;42.112;24.738;2022-10-18T11:51:29;7.93;;;4.00;;
9888;SDS011;4983;42.112;24.738;2022-10-18T11:54:04;8.30;;;3.80;;
9888;SDS011;4983;42.112;24.738;2022-10-18T11:56:36;11.03;;;3.40;;
9888;SDS011;4983;42.112;24.738;2022-10-18T11:59:08;8.43;;;4.10;;
9888;SDS011;4983;42.112;24.738;2022-10-18T12:01:38;7.97;;;3.80;;
9888;SDS011;4983;42.112;24.738;2022-10-18T12:04:09;6.57;;;3.87;;
9888;SDS011;4983;42.112;24.738;2022-10-18T12:06:38;6.83;;;3.80;;
9888;SDS011;4983;42.112;24.738;2022-10-18T12:09:08;9.90;;;4.40;;
9888;SDS011;4983;42.112;24.738;2022-10-18T12:11:37;8.83;;;3.97;;
9888;SDS011;4983;42.112;24.738;2022-10-18T12:14:06;6.60;;;3.60;;
9888;SDS011;4983;42.112;24.738;2022-10-18T12:16:39;7.67;;;3.73;;
9888;SDS011;4983;42.112;24.738;2022-10-18T12:19:07;9.70;;;3.80;;
9888;SDS011;4983;42.112;24.738;2022-10-18T12:21:39;5.90;;;3.53;;
9888;SDS011;4983;42.112;24.738;2022-10-18T12:24:06;6.67;;;4.00;;
9888;SDS011;4983;42.112;24.738;2022-10-18T12:26:33;9.10;;;3.83;;
9888;SDS011;4983;42.112;24.738;2022-10-18T12:29:12;6.63;;;3.63;;
9888;SDS011;4983;42.112;24.738;2022-10-18T12:31:43;5.33;;;3.73;;
9888;SDS011;4983;42.112;24.738;2022-10-18T12:37:09;8.50;;;4.20;;
9888;SDS011;4983;42.112;24.738;2022-10-18T12:39:40;41.53;;;7.33;;
9888;SDS011;4983;42.112;24.738;2022-10-18T12:42:14;35.67;;;7.00;;
9888;SDS011;4983;42.112;24.738;2022-10-18T12:44:42;14.70;;;4.10;;
9888;SDS011;4983;42.112;24.738;2022-10-18T12:47:17;5.37;;;3.70;;
9888;SDS011;4983;42.112;24.738;2022-10-18T12:49:46;9.90;;;4.23;;
9888;SDS011;4983;42.112;24.738;2022-10-18T12:52:22;7.00;;;3.87;;
9888;SDS011;4983;42.112;24.738;2022-10-18T12:54:59;6.53;;;4.10;;
9888;SDS011;4983;42.112;24.738;2022-10-18T12:57:27;12.73;;;4.40;;
9888;SDS011;4983;42.112;24.738;2022-10-18T13:05:47;6.37;;;4.10;;
9888;SDS011;4983;42.112;24.738;2022-10-18T13:08:36;7.10;;;3.10;;
9888;SDS011;4983;42.112;24.738;2022-10-18T13:16:37;7.67;;;2.60;;
9888;SDS011;4983;42.112;24.738;2022-10-18T13:19:15;29.90;;;12.07;;
9888;SDS011;4983;42.112;24.738;2022-10-18T13:21:45;29.10;;;4.63;;
9888;SDS011;4983;42.112;24.738;2022-10-18T13:24:18;3.87;;;2.27;;
9888;SDS011;4983;42.112;24.738;2022-10-18T13:26:51;11.83;;;3.10;;
9888;SDS011;4983;42.112;24.738;2022-10-18T13:29:28;8.13;;;2.90;;
9888;SDS011;4983;42.112;24.738;2022-10-18T13:31:58;21.57;;;4.20;;
9888;SDS011;4983;42.112;24.738;2022-10-18T13:34:27;10.20;;;3.23;;
9888;SDS011;4983;42.112;24.738;2022-10-18T13:36:57;9.23;;;3.40;;
9888;SDS011;4983;42.112;24.738;2022-10-18T13:39:26;6.50;;;3.20;;
9888;SDS011;4983;42.112;24.738;2022-10-18T13:44:38;18.40;;;7.30;;
9888;SDS011;4983;42.112;24.738;2022-10-18T13:47:08;9.93;;;3.87;;
9888;SDS011;4983;42.112;24.738;2022-10-18T13:49:38;21.67;;;5.50;;
9888;SDS011;4983;42.112;24.738;2022-10-18T13:52:10;21.40;;;5.03;;
9888;SDS011;4983;42.112;24.738;2022-10-18T13:54:56;16.83;;;4.97;;
9888;SDS011;4983;42.112;24.738;2022-10-18T13:57:29;15.60;;;5.07;;
9888;SDS011;4983;42.112;24.738;2022-10-18T14:00:13;31.63;;;11.03;;
9888;SDS011;4983;42.112;24.738;2022-10-18T14:02:48;44.57;;;30.53;;
9888;SDS011;4983;42.112;24.738;2022-10-18T14:05:19;11.53;;;5.70;;
9888;SDS011;4983;42.112;24.738;2022-10-18T14:07:50;22.70;;;6.40;;
9888;SDS011;4983;42.112;24.738;2022-10-18T14:10:27;18.33;;;6.00;;
9888;SDS011;4983;42.112;24.738;2022-10-18T14:12:58;22.53;;;10.17;;
9888;SDS011;4983;42.112;24.738;2022-10-18T14:15:27;46.20;;;9.10;;
9888;SDS011;4983;42.112;24.738;2022-10-18T14:17:57;78.43;;;11.13;;
9888;SDS011;4983;42.112;24.738;2022-10-18T14:20:26;24.57;;;6.77;;
9888;SDS011;4983;42.112;24.738;2022-10-18T14:22:55;19.80;;;7.40;;
9888;SDS011;4983;42.112;24.738;2022-10-18T14:25:26;21.90;;;8.03;;
9888;SDS011;4983;42.112;24.738;2022-10-18T14:28:03;18.87;;;6.90;;
9888;SDS011;4983;42.112;24.738;2022-10-18T14:30:30;26.40;;;7.10;;
9888;SDS011;4983;42.112;24.738;2022-10-18T14:32:56;12.80;;;5.60;;
9888;SDS011;4983;42.112;24.738;2022-10-18T14:35:24;56.97;;;11.37;;
9888;SDS011;4983;42.112;24.738;2022-10-18T14:37:52;28.27;;;9.13;;
9888;SDS011;4983;42.112;24.738;2022-10-18T14:40:31;27.63;;;16.83;;
9888;SDS011;4983;42.112;24.738;2022-10-18T14:43:00;74.43;;;28.57;;
9888;SDS011;4983;42.112;24.738;2022-10-18T14:45:27;44.60;;;14.83;;
9888;SDS011;4983;42.112;24.738;2022-10-18T14:47:54;15.20;;;6.93;;
9888;SDS011;4983;42.112;24.738;2022-10-18T14:50:21;19.93;;;7.33;;
9888;SDS011;4983;42.112;24.738;2022-10-18T14:52:48;36.73;;;11.90;;
9888;SDS011;4983;42.112;24.738;2022-10-18T14:55:15;26.87;;;7.10;;
9888;SDS011;4983;42.112;24.738;2022-10-18T14:57:45;34.20;;;6.90;;
9888;SDS011;4983;42.112;24.738;2022-10-18T15:00:17;45.27;;;8.57;;
9888;SDS011;4983;42.112;24.738;2022-10-18T15:02:45;95.07;;;28.30;;
9888;SDS011;4983;42.112;24.738;2022-10-18T15:05:17;159.73;;;46.20;;
9888;SDS011;4983;42.112;24.738;2022-10-18T15:07:44;137.83;;;75.93;;
9888;SDS011;4983;42.112;24.738;2022-10-18T15:10:13;158.30;;;84.97;;
9888;SDS011;4983;42.112;24.738;2022-10-18T15:12:40;79.67;;;25.70;;
9888;SDS011;4983;42.112;24.738;2022-10-18T15:15:13;64.30;;;20.40;;
9888;SDS011;4983;42.112;24.738;2022-10-18T15:17:42;49.37;;;11.97;;
9888;SDS011;4983;42.112;24.738;2022-10-18T15:20:17;63.60;;;10.77;;
9888;SDS011;4983;42.112;24.738;2022-10-18T15:22:44;72.60;;;12.03;;